createdAt,value
2023-05-29T00:01:48.666Z,9.68
2023-05-29T00:04:16.491Z,9.65
2023-05-29T00:06:43.958Z,9.51
2023-05-29T00:09:11.414Z,9.59
2023-05-29T00:11:38.630Z,9.48
2023-05-29T00:14:06.344Z,9.38
2023-05-29T00:16:33.614Z,9.30
2023-05-29T00:19:01.369Z,9.29
2023-05-29T00:21:28.599Z,9.18
2023-05-29T00:23:56.209Z,9.17
2023-05-29T00:26:23.427Z,9.02
2023-05-29T00:28:55.522Z,8.97
2023-05-29T00:31:22.805Z,8.81
2023-05-29T00:33:50.638Z,8.85
2023-05-29T00:36:18.068Z,8.79
2023-05-29T00:38:45.763Z,8.72
2023-05-29T00:41:17.192Z,8.85
2023-05-29T00:43:45.285Z,8.69
2023-05-29T00:46:14.744Z,8.65
2023-05-29T00:48:43.657Z,9.01
2023-05-29T00:51:13.418Z,9.07
2023-05-29T00:53:43.628Z,9.21
2023-05-29T00:56:12.028Z,9.15
2023-05-29T00:58:39.699Z,9.26
2023-05-29T01:01:07.171Z,9.31
2023-05-29T01:03:37.066Z,9.35
2023-05-29T01:06:04.877Z,9.16
2023-05-29T01:08:32.407Z,9.18
2023-05-29T01:11:09.892Z,9.31
2023-05-29T01:13:41.739Z,9.05
2023-05-29T01:16:19.666Z,9.18
2023-05-29T01:19:20.458Z,9.30
2023-05-29T01:22:23.745Z,9.28
2023-05-29T01:25:05.298Z,9.19
2023-05-29T01:27:33.666Z,9.13
2023-05-29T01:30:04.306Z,9.23
2023-05-29T01:32:32.196Z,8.99
2023-05-29T01:34:59.905Z,8.96
2023-05-29T01:37:28.560Z,8.87
2023-05-29T01:39:57.752Z,8.47
2023-05-29T01:42:27.906Z,9.27
2023-05-29T01:44:57.892Z,9.50
2023-05-29T01:47:25.913Z,9.32
2023-05-29T01:49:53.848Z,9.41
2023-05-29T01:52:21.217Z,8.50
2023-05-29T01:54:48.944Z,8.41
2023-05-29T01:57:16.909Z,8.37
2023-05-29T01:59:44.573Z,8.16
2023-05-29T02:02:13.110Z,8.16
2023-05-29T02:04:41.028Z,8.28
2023-05-29T02:07:08.367Z,8.19
2023-05-29T02:09:37.302Z,8.09
2023-05-29T02:12:04.907Z,8.01
2023-05-29T02:14:33.309Z,7.88
2023-05-29T02:17:02.882Z,7.86
2023-05-29T02:19:30.686Z,7.85
2023-05-29T02:21:57.971Z,7.83
2023-05-29T02:24:25.583Z,7.93
2023-05-29T02:26:53.135Z,7.71
2023-05-29T02:29:20.759Z,7.70
2023-05-29T02:31:48.023Z,7.75
2023-05-29T02:34:15.635Z,7.76
2023-05-29T02:36:43.262Z,7.80
2023-05-29T02:39:10.982Z,7.83
2023-05-29T02:41:39.435Z,7.89
2023-05-29T02:44:07.252Z,7.93
2023-05-29T02:46:34.484Z,7.82
2023-05-29T02:49:02.103Z,8.14
2023-05-29T02:51:29.559Z,8.17
2023-05-29T02:53:57.196Z,8.28
2023-05-29T02:56:27.418Z,8.24
2023-05-29T02:58:55.144Z,7.87
2023-05-29T03:01:22.417Z,7.73
2023-05-29T03:03:50.449Z,7.66
2023-05-29T03:06:19.143Z,8.40
2023-05-29T03:08:48.146Z,8.57
2023-05-29T03:11:16.540Z,8.02
2023-05-29T03:13:44.134Z,7.78
2023-05-29T03:16:11.615Z,7.57
2023-05-29T03:18:41.067Z,7.57
2023-05-29T03:21:09.032Z,7.67
2023-05-29T03:23:36.777Z,7.70
2023-05-29T03:26:05.089Z,7.79
2023-05-29T03:28:34.765Z,7.70
2023-05-29T03:31:05.333Z,7.59
2023-05-29T03:33:32.881Z,7.69
2023-05-29T03:36:18.615Z,7.72
2023-05-29T03:38:46.537Z,7.76
2023-05-29T03:41:13.694Z,7.79
2023-05-29T03:43:41.556Z,7.82
2023-05-29T03:46:08.844Z,7.88
2023-05-29T03:48:37.629Z,7.92
2023-05-29T03:51:06.209Z,8.13
2023-05-29T03:53:37.253Z,7.87
2023-05-29T03:56:04.620Z,7.70
2023-05-29T03:58:33.717Z,7.72
2023-05-29T04:01:02.460Z,7.68
2023-05-29T04:03:32.899Z,7.74
2023-05-29T04:06:00.315Z,7.92
2023-05-29T04:08:27.948Z,8.16
2023-05-29T04:10:55.207Z,8.09
2023-05-29T04:13:23.635Z,8.22
2023-05-29T04:15:54.022Z,8.39
2023-05-29T04:18:22.474Z,8.57
2023-05-29T04:20:50.017Z,8.65
2023-05-29T04:23:18.296Z,8.71
2023-05-29T04:25:45.504Z,8.75
2023-05-29T04:28:24.787Z,8.86
2023-05-29T04:30:53.471Z,9.01
2023-05-29T04:33:22.209Z,9.20
2023-05-29T04:35:51.959Z,9.30
2023-05-29T04:38:20.573Z,9.46
2023-05-29T04:40:49.232Z,9.56
2023-05-29T04:43:20.017Z,9.68
2023-05-29T04:45:58.886Z,9.74
2023-05-29T04:48:28.194Z,9.89
2023-05-29T04:50:55.555Z,9.94
2023-05-29T04:53:24.880Z,10.10
2023-05-29T04:55:52.214Z,10.27
2023-05-29T04:58:19.810Z,10.48
2023-05-29T05:00:50.102Z,10.57
2023-05-29T05:03:18.109Z,10.62
2023-05-29T05:05:46.086Z,10.91
2023-05-29T05:08:15.787Z,10.80
2023-05-29T05:10:43.141Z,10.86
2023-05-29T05:13:12.401Z,11.03
2023-05-29T05:15:39.854Z,11.74
2023-05-29T05:18:07.502Z,11.27
2023-05-29T05:20:36.280Z,11.20
2023-05-29T05:23:04.640Z,11.19
2023-05-29T05:25:34.315Z,11.24
2023-05-29T05:28:02.513Z,11.43
2023-05-29T05:30:30.017Z,11.69
2023-05-29T05:32:58.730Z,11.85
2023-05-29T05:35:26.076Z,11.95
2023-05-29T05:37:53.684Z,12.09
2023-05-29T05:40:21.900Z,12.30
2023-05-29T05:42:59.300Z,12.47
2023-05-29T05:45:46.734Z,12.38
2023-05-29T05:48:14.341Z,12.44
2023-05-29T05:50:41.967Z,12.54
2023-05-29T05:53:09.657Z,12.76
2023-05-29T05:55:36.920Z,12.76
2023-05-29T05:58:05.383Z,12.70
2023-05-29T06:00:32.715Z,12.90
2023-05-29T06:03:01.516Z,13.14
2023-05-29T06:05:47.738Z,13.36
2023-05-29T06:08:16.541Z,13.37
2023-05-29T06:10:44.970Z,13.50
2023-05-29T06:13:13.198Z,13.80
2023-05-29T06:15:48.813Z,13.94
2023-05-29T06:18:16.666Z,14.24
2023-05-29T06:20:43.981Z,14.46
2023-05-29T06:23:12.069Z,14.56
2023-05-29T06:25:40.069Z,14.61
2023-05-29T06:28:07.717Z,14.79
2023-05-29T06:30:35.523Z,14.97
2023-05-29T06:33:07.537Z,15.14
2023-05-29T06:35:37.116Z,15.34
2023-05-29T06:38:05.332Z,15.43
2023-05-29T06:40:32.817Z,15.58
2023-05-29T06:43:01.829Z,15.72
2023-05-29T06:45:46.974Z,15.86
2023-05-29T06:48:14.662Z,15.86
2023-05-29T06:50:43.329Z,16.09
2023-05-29T06:53:30.926Z,16.33
2023-05-29T06:55:58.460Z,16.59
2023-05-29T06:58:26.597Z,16.85
2023-05-29T07:00:53.996Z,16.94
2023-05-29T07:03:28.451Z,17.10
2023-05-29T07:05:56.202Z,17.27
2023-05-29T08:03:09.970Z,19.22
2023-05-29T08:06:06.514Z,19.96
2023-05-29T08:08:35.002Z,20.58
2023-05-29T08:11:03.022Z,21.05
2023-05-29T08:13:32.086Z,21.49
2023-05-29T08:16:00.229Z,21.96
2023-05-29T08:18:27.878Z,22.33
2023-05-29T08:20:55.831Z,22.50
2023-05-29T08:23:24.840Z,22.66
2023-05-29T08:25:52.493Z,22.75
2023-05-29T08:28:19.917Z,23.13
2023-05-29T08:30:47.545Z,23.31
2023-05-29T08:33:14.911Z,23.40
2023-05-29T08:35:42.477Z,23.23
2023-05-29T08:38:09.926Z,23.36
2023-05-29T08:40:38.068Z,23.42
2023-05-29T08:43:32.419Z,23.74
2023-05-29T08:46:04.682Z,23.89
2023-05-29T08:48:32.398Z,24.06
2023-05-29T08:51:03.674Z,23.68
2023-05-29T08:53:32.842Z,23.71
2023-05-29T09:00:56.895Z,23.46
2023-05-29T09:03:25.152Z,23.71
2023-05-29T09:05:52.515Z,24.08
2023-05-29T09:08:20.519Z,24.30
2023-05-29T09:10:47.780Z,24.15
2023-05-29T09:13:15.812Z,23.89
2023-05-29T09:15:45.125Z,23.87
2023-05-29T09:18:13.245Z,23.78
2023-05-29T09:20:40.821Z,23.54
2023-05-29T09:23:10.530Z,23.47
2023-05-29T09:25:45.799Z,23.17
2023-05-29T09:28:15.297Z,23.41
2023-05-29T09:30:50.561Z,23.80
2023-05-29T09:33:18.403Z,24.07
2023-05-29T09:35:50.371Z,24.27
2023-05-29T09:40:50.705Z,25.41
2023-05-29T09:43:21.219Z,25.97
2023-05-29T09:45:50.208Z,26.14
2023-05-29T09:48:19.746Z,26.32
2023-05-29T09:50:49.435Z,26.65
2023-05-29T09:53:27.526Z,26.93
2023-05-29T09:55:56.730Z,26.87
2023-05-29T09:58:25.064Z,27.33
2023-05-29T10:00:53.486Z,27.90
2023-05-29T10:03:23.469Z,28.43
2023-05-29T10:05:52.546Z,28.86
2023-05-29T10:08:21.588Z,29.11
2023-05-29T10:11:00.518Z,29.43
2023-05-29T10:13:32.587Z,29.58
2023-05-29T10:16:02.111Z,30.10
2023-05-29T10:18:36.539Z,30.60
2023-05-29T10:21:04.544Z,30.90
2023-05-29T10:23:32.568Z,31.33
2023-05-29T10:26:22.698Z,31.40
2023-05-29T10:29:04.558Z,31.34
2023-05-29T10:31:48.210Z,30.88
2023-05-29T10:34:34.471Z,30.24
2023-05-29T10:37:19.726Z,29.57
2023-05-29T10:40:38.712Z,29.61
2023-05-29T10:43:10.361Z,30.42
2023-05-29T10:45:40.995Z,31.52
2023-05-29T10:48:09.558Z,32.03
2023-05-29T10:50:46.683Z,32.61
2023-05-29T10:53:33.137Z,32.92
2023-05-29T10:56:02.493Z,32.89
2023-05-29T10:58:31.629Z,32.99
2023-05-29T11:03:06.832Z,33.56
2023-05-29T11:05:34.634Z,33.96
2023-05-29T11:08:06.480Z,34.10
2023-05-29T11:10:47.310Z,34.45
2023-05-29T11:13:36.276Z,34.63
2023-05-29T11:16:11.530Z,35.01
2023-05-29T11:18:49.589Z,34.62
2023-05-29T11:21:43.103Z,33.54
2023-05-29T11:24:23.494Z,32.60
2023-05-29T11:26:54.465Z,31.90
2023-05-29T11:29:39.672Z,31.32
2023-05-29T11:34:23.805Z,32.14
2023-05-29T11:36:52.937Z,33.10
2023-05-29T11:39:20.504Z,33.84
2023-05-29T11:41:53.110Z,34.24
2023-05-29T11:44:21.351Z,34.35
2023-05-29T11:47:00.348Z,34.33
2023-05-29T11:49:36.055Z,34.38
2023-05-29T11:52:24.055Z,34.33
2023-05-29T11:54:51.693Z,34.50
2023-05-29T11:57:21.056Z,34.86
2023-05-29T11:59:50.852Z,34.93
2023-05-29T12:02:18.650Z,34.66
2023-05-29T12:05:01.823Z,35.14
2023-05-29T12:07:29.706Z,35.63
2023-05-29T12:09:59.028Z,35.97
2023-05-29T12:12:28.611Z,36.61
2023-05-29T12:14:56.234Z,36.73
2023-05-29T12:17:24.299Z,37.09
2023-05-29T12:19:51.757Z,37.30
2023-05-29T12:22:31.175Z,37.44
2023-05-29T12:25:06.351Z,37.72
2023-05-29T12:27:38.694Z,37.51
2023-05-29T12:30:07.028Z,37.48
2023-05-29T12:32:43.105Z,37.30
2023-05-29T12:35:14.966Z,37.00
2023-05-29T12:37:51.114Z,36.57
2023-05-29T12:40:21.303Z,36.24
2023-05-29T12:42:50.421Z,36.20
2023-05-29T12:45:19.800Z,36.16
2023-05-29T12:47:52.358Z,35.78
2023-05-29T12:50:31.469Z,35.26
2023-05-29T12:53:09.719Z,34.67
2023-05-29T12:55:41.157Z,34.11
2023-05-29T12:58:15.108Z,33.70
2023-05-29T13:00:44.869Z,33.63
2023-05-29T13:03:13.488Z,33.26
2023-05-29T13:05:41.184Z,32.90
2023-05-29T13:08:09.480Z,32.43
2023-05-29T13:10:37.380Z,31.92
2023-05-29T13:13:05.425Z,31.82
2023-05-29T13:15:34.386Z,31.68
2023-05-29T13:18:02.426Z,31.83
2023-05-29T13:20:31.387Z,32.03
2023-05-29T13:22:59.285Z,31.64
2023-05-29T13:25:27.169Z,31.65
2023-05-29T13:27:55.154Z,31.81
2023-05-29T13:30:23.519Z,31.55
2023-05-29T13:32:53.355Z,31.49
2023-05-29T13:35:21.732Z,31.63
2023-05-29T13:37:50.277Z,31.54
2023-05-29T13:40:17.655Z,31.39
2023-05-29T13:42:45.357Z,31.53
2023-05-29T13:45:13.462Z,32.07
2023-05-29T13:47:41.141Z,32.43
2023-05-29T13:50:09.889Z,32.62
2023-05-29T13:52:37.589Z,32.65
2023-05-29T13:55:10.280Z,32.89
2023-05-29T13:57:38.417Z,33.08
2023-05-29T14:00:06.976Z,33.31
2023-05-29T14:02:34.792Z,33.68
2023-05-29T14:05:02.155Z,34.03
2023-05-29T14:07:30.069Z,34.44
2023-05-29T14:09:57.402Z,34.72
2023-05-29T14:12:25.173Z,34.92
2023-05-29T14:14:52.520Z,35.31
2023-05-29T14:17:20.332Z,35.21
2023-05-29T14:19:48.859Z,35.36
2023-05-29T14:22:16.559Z,35.63
2023-05-29T14:24:43.886Z,35.44
2023-05-29T14:27:11.854Z,35.55
2023-05-29T14:29:39.153Z,35.58
2023-05-29T14:32:07.343Z,35.31
2023-05-29T14:34:34.639Z,35.32
2023-05-29T14:37:02.185Z,35.27
2023-05-29T14:39:29.674Z,35.25
2023-05-29T14:41:57.431Z,35.11
2023-05-29T14:44:24.719Z,35.15
2023-05-29T14:46:52.483Z,35.21
2023-05-29T14:49:20.870Z,34.98
2023-05-29T14:51:48.506Z,34.99
2023-05-29T14:54:16.028Z,35.12
2023-05-29T14:56:43.617Z,34.52
2023-05-29T14:59:11.092Z,34.26
2023-05-29T15:01:38.873Z,33.86
2023-05-29T15:04:06.959Z,33.23
2023-05-29T15:06:35.124Z,32.42
2023-05-29T15:09:02.452Z,31.80
2023-05-29T15:11:31.141Z,31.46
2023-05-29T15:13:58.576Z,30.86
2023-05-29T15:16:26.421Z,30.08
2023-05-29T15:18:53.724Z,29.46
2023-05-29T15:21:21.396Z,28.97
2023-05-29T15:23:49.857Z,28.54
2023-05-29T15:26:17.529Z,28.08
2023-05-29T15:28:44.777Z,27.70
2023-05-29T15:31:12.812Z,27.36
2023-05-29T15:33:41.008Z,26.84
2023-05-29T15:36:09.023Z,26.51
2023-05-29T15:38:36.290Z,26.15
2023-05-29T15:41:04.316Z,25.84
2023-05-29T15:43:36.327Z,25.54
2023-05-29T15:46:04.964Z,25.27
2023-05-29T15:48:32.333Z,24.90
2023-05-29T15:50:59.841Z,24.85
2023-05-29T15:53:27.080Z,24.73
2023-05-29T15:55:56.277Z,24.66
2023-05-29T15:58:24.328Z,24.55
2023-05-29T16:00:51.959Z,24.28
2023-05-29T16:03:19.515Z,24.15
2023-05-29T16:05:47.388Z,23.85
2023-05-29T16:08:14.748Z,23.51
2023-05-29T16:10:43.436Z,23.32
2023-05-29T16:13:10.927Z,23.02
2023-05-29T16:15:38.471Z,22.77
2023-05-29T16:18:06.007Z,22.68
2023-05-29T16:20:33.779Z,22.57
2023-05-29T16:23:01.077Z,22.54
2023-05-29T16:25:28.720Z,22.38
2023-05-29T16:27:56.494Z,22.26
2023-05-29T16:30:24.935Z,22.15
2023-05-29T16:32:53.022Z,22.12
2023-05-29T16:35:20.744Z,22.10
2023-05-29T16:37:47.971Z,22.14
2023-05-29T16:40:16.175Z,22.22
2023-05-29T16:42:43.516Z,22.20
2023-05-29T16:45:11.209Z,22.18
2023-05-29T16:47:38.456Z,22.10
2023-05-29T16:50:06.268Z,22.12
2023-05-29T16:52:33.588Z,22.05
2023-05-29T16:55:03.117Z,22.00
2023-05-29T16:57:30.541Z,21.94
2023-05-29T16:59:58.091Z,21.94
2023-05-29T17:02:25.350Z,21.85
2023-05-29T17:04:53.050Z,21.77
2023-05-29T17:07:21.319Z,21.84
2023-05-29T17:09:50.134Z,21.78
2023-05-29T17:12:17.415Z,21.68
2023-05-29T17:14:44.952Z,21.63
2023-05-29T17:17:18.382Z,21.55
2023-05-29T17:19:47.279Z,21.47
2023-05-29T17:22:14.618Z,21.17
2023-05-29T17:24:42.257Z,21.16
2023-05-29T17:27:09.791Z,21.06
2023-05-29T17:29:37.358Z,21.03
2023-05-29T17:32:04.995Z,20.92
2023-05-29T17:34:32.787Z,20.83
2023-05-29T17:37:00.011Z,20.66
2023-05-29T17:39:27.672Z,20.59
2023-05-29T17:41:54.950Z,20.49
2023-05-29T17:44:22.491Z,20.46
2023-05-29T17:46:51.689Z,20.34
2023-05-29T17:49:19.225Z,20.12
2023-05-29T17:51:46.545Z,20.07
2023-05-29T17:54:14.168Z,19.95
2023-05-29T17:56:42.110Z,19.84
2023-05-29T17:59:09.678Z,19.69
2023-05-29T18:01:37.078Z,19.60
2023-05-29T18:04:05.675Z,19.52
2023-05-29T18:06:33.368Z,19.40
2023-05-29T18:09:02.815Z,19.24
2023-05-29T18:11:30.095Z,19.12
2023-05-29T18:13:57.702Z,19.02
2023-05-29T18:16:24.998Z,18.94
2023-05-29T18:18:53.858Z,18.83
2023-05-29T18:21:23.924Z,18.62
2023-05-29T18:23:52.638Z,18.52
2023-05-29T18:26:20.346Z,18.49
2023-05-29T18:28:47.900Z,18.45
2023-05-29T18:31:17.895Z,18.37
2023-05-29T18:33:45.768Z,18.23
2023-05-29T18:36:14.070Z,18.12
2023-05-29T18:38:42.215Z,18.04
2023-05-29T18:41:09.512Z,17.93
2023-05-29T18:43:37.200Z,17.89
2023-05-29T18:46:05.105Z,17.91
2023-05-29T18:48:32.681Z,17.79
2023-05-29T18:51:01.879Z,17.72
2023-05-29T18:53:29.472Z,17.73
2023-05-29T18:55:57.327Z,17.75
2023-05-29T18:58:25.632Z,17.57
2023-05-29T19:00:53.556Z,17.47
2023-05-29T19:03:21.833Z,17.30
2023-05-29T19:05:49.370Z,17.36
2023-05-29T19:08:18.598Z,17.40
2023-05-29T19:10:46.700Z,17.51
2023-05-29T19:13:15.171Z,17.51
2023-05-29T19:15:43.364Z,17.55
2023-05-29T19:18:12.201Z,17.49
2023-05-29T19:20:39.717Z,17.09
2023-05-29T19:23:09.456Z,17.10
2023-05-29T19:25:37.482Z,16.97
2023-05-29T19:28:09.750Z,16.91
2023-05-29T19:30:37.352Z,16.90
2023-05-29T19:33:11.220Z,16.75
2023-05-29T19:35:40.232Z,16.57
2023-05-29T19:38:08.821Z,16.32
2023-05-29T19:40:36.575Z,16.18
2023-05-29T19:43:05.843Z,16.17
2023-05-29T19:45:33.179Z,16.09
2023-05-29T19:48:01.042Z,16.09
2023-05-29T19:50:28.883Z,15.81
2023-05-29T19:52:56.472Z,15.69
2023-05-29T19:55:24.187Z,15.49
2023-05-29T19:57:51.791Z,15.47
2023-05-29T20:00:19.153Z,15.43
2023-05-29T20:02:47.169Z,15.41
2023-05-29T20:05:15.611Z,15.32
2023-05-29T20:07:44.154Z,15.33
2023-05-29T20:10:12.289Z,15.32
2023-05-29T20:12:41.044Z,15.25
2023-05-29T20:15:08.910Z,15.12
2023-05-29T20:17:39.022Z,15.19
2023-05-29T20:20:07.825Z,15.25
2023-05-29T20:22:35.954Z,15.14
2023-05-29T20:25:03.753Z,15.08
2023-05-29T20:27:31.575Z,14.98
2023-05-29T20:30:01.416Z,14.85
2023-05-29T20:32:29.455Z,14.70
2023-05-29T20:34:56.747Z,14.53
2023-05-29T20:37:24.614Z,14.47
2023-05-29T20:39:52.767Z,14.29
2023-05-29T20:42:23.001Z,14.43
2023-05-29T20:44:51.838Z,14.34
2023-05-29T20:47:22.568Z,14.12
2023-05-29T20:49:50.077Z,13.94
2023-05-29T20:52:18.080Z,13.69
2023-05-29T20:54:45.473Z,13.75
2023-05-29T20:57:12.987Z,13.52
2023-05-29T20:59:40.387Z,13.54
2023-05-29T21:02:08.681Z,13.48
2023-05-29T21:04:36.005Z,13.37
2023-05-29T21:07:03.863Z,13.26
2023-05-29T21:09:31.120Z,13.14
2023-05-29T21:11:59.174Z,13.11
2023-05-29T21:14:26.567Z,13.15
2023-05-29T21:16:54.263Z,12.96
2023-05-29T21:19:21.967Z,12.99
2023-05-29T21:21:49.865Z,13.02
2023-05-29T21:24:17.330Z,12.94
2023-05-29T21:26:44.885Z,12.90
2023-05-29T21:29:13.044Z,12.84
2023-05-29T21:31:42.126Z,12.79
2023-05-29T21:34:09.593Z,12.77
2023-05-29T21:36:39.139Z,12.53
2023-05-29T21:39:07.860Z,12.30
2023-05-29T21:41:35.727Z,12.13
2023-05-29T21:44:03.167Z,12.09
2023-05-29T21:46:30.813Z,12.08
2023-05-29T21:48:58.342Z,12.08
2023-05-29T21:51:26.068Z,12.00
2023-05-29T21:53:53.368Z,11.90
2023-05-29T21:56:20.974Z,11.97
2023-05-29T21:58:48.383Z,11.84
2023-05-29T22:01:16.734Z,11.71
2023-05-29T22:03:44.122Z,11.79
2023-05-29T22:06:12.402Z,11.73
2023-05-29T22:08:44.472Z,11.78
2023-05-29T22:11:12.830Z,11.61
2023-05-29T22:13:40.338Z,11.48
2023-05-29T22:16:11.416Z,11.41
2023-05-29T22:18:39.195Z,11.41
2023-05-29T22:21:07.242Z,11.37
2023-05-29T22:23:34.484Z,11.22
2023-05-29T22:26:02.988Z,11.17
2023-05-29T22:28:31.408Z,11.14
2023-05-29T22:30:59.237Z,11.03
2023-05-29T22:33:28.057Z,11.12
2023-05-29T22:35:56.117Z,11.11
2023-05-29T22:38:23.287Z,11.03
2023-05-29T22:40:52.064Z,10.99
2023-05-29T22:43:19.361Z,10.94
2023-05-29T22:45:46.933Z,11.19
2023-05-29T22:48:19.066Z,11.39
2023-05-29T22:50:46.913Z,11.49
2023-05-29T22:53:14.633Z,11.33
2023-05-29T22:55:48.748Z,10.85
2023-05-29T22:58:16.889Z,10.66
2023-05-29T23:00:45.781Z,10.63
2023-05-29T23:03:15.142Z,10.39
2023-05-29T23:05:43.799Z,10.35
2023-05-29T23:08:10.995Z,10.79
2023-05-29T23:10:38.629Z,10.70
2023-05-29T23:13:06.036Z,10.71
2023-05-29T23:15:33.485Z,10.75
2023-05-29T23:18:01.878Z,10.92
2023-05-29T23:20:29.733Z,10.19
2023-05-29T23:22:57.405Z,9.92
2023-05-29T23:25:25.719Z,9.86
2023-05-29T23:27:53.928Z,9.82
2023-05-29T23:30:22.728Z,9.79
2023-05-29T23:32:50.046Z,9.89
2023-05-29T23:35:18.064Z,9.91
2023-05-29T23:37:45.625Z,10.00
2023-05-29T23:40:13.684Z,10.06
2023-05-29T23:42:41.078Z,10.00
2023-05-29T23:45:09.376Z,10.05
2023-05-29T23:47:36.658Z,9.87
2023-05-29T23:50:05.769Z,9.81
2023-05-29T23:52:33.028Z,9.61
2023-05-29T23:55:00.548Z,9.43
2023-05-29T23:57:27.781Z,9.25
2023-05-29T23:59:56.689Z,9.18
